PWSweather.com
Personal Weather Stations
Station Observations
NCCALABA57
The Farm, Calabash, NC 28467

The FarmCalabash, NC 28467

Lat: 33.9246539, Lon: -78.5696509

Elevation: 44

Station Type: Davis Vantage Pro 2

Latest ConditionsUpdated 4:00:01 PM EDT Monday, Sep 23, 2019
Currently Today's Max Today's Min Today's Average
Temperature 81.9°F27.7°C 83.8°F28.8°C 56.6°F13.7°C 68.5°F20.3°C
Dew Point 68.1°F20.1°C 70.1°F21.2°C 55.9°F13.3°C 62.3°F16.8°C
Winds 4.6 mph S7.4 kmh S 6.9 mph -11.1 kmh - - 1.2 mph 1.9 kmh
Wind Gusts 6.9 mph11.1 kmh 12.7 mph20.4 kmh - -
Humidity 63% 100% 55% 83%
Pressure 30.04 in1017.3 mb 30.17 in1021.7 mb 30.04 in1017.3 mb -
Hour Temp Dew Point Humidity Winds Wind Gusts Pressure Precip Precip Rate Daily Precip Total
04:00 PM 81.9°F27.7°C 68.1°F20.1°C 63% 4.6 mph S7.4 kmh S 6.9 mph11.1 kmh 30.04 in1017.3 mb - 0.00 in0.0 mm 0.00 in0.0 mm
03:30 PM 81.9°F27.7°C 67.1°F19.5°C 61% 6.9 mph S11.1 kmh S 12.7 mph20.4 kmh 30.04 in1017.3 mb - 0.00 in0.0 mm 0.00 in0.0 mm
03:00 PM 82.3°F27.9°C 68.0°F20.0°C 62% 3.5 mph S5.6 kmh S 8.1 mph13.0 kmh 30.05 in1017.6 mb - 0.00 in0.0 mm 0.00 in0.0 mm
02:30 PM 82.5°F28.1°C 66.8°F19.3°C 59% 5.8 mph S9.3 kmh S 9.2 mph14.8 kmh 30.07 in1018.3 mb - 0.00 in0.0 mm 0.00 in0.0 mm
02:00 PM 83.0°F28.3°C 66.7°F19.3°C 58% 4.6 mph SSE7.4 kmh SSE 4.6 mph7.4 kmh 30.08 in1018.6 mb - 0.00 in0.0 mm 0.00 in0.0 mm
01:30 PM 83.7°F28.7°C 66.4°F19.1°C 56% 6.9 mph S11.1 kmh S 12.7 mph20.4 kmh 30.09 in1019.0 mb - 0.00 in0.0 mm 0.00 in0.0 mm
01:00 PM 83.8°F28.8°C 66.0°F18.9°C 55% 1.2 mph SSW1.9 kmh SSW 4.6 mph7.4 kmh 30.11 in1019.6 mb - 0.00 in0.0 mm 0.00 in0.0 mm
12:30 PM 83.7°F28.7°C 65.8°F18.8°C 55% 2.3 mph S3.7 kmh S 6.9 mph11.1 kmh 30.12 in1020.0 mb - 0.00 in0.0 mm 0.00 in0.0 mm
12:00 PM 82.3°F27.9°C 66.1°F18.9°C 58% 1.2 mph SE1.9 kmh SE 1.2 mph1.9 kmh 30.13 in1020.3 mb - 0.00 in0.0 mm 0.00 in0.0 mm
11:30 AM 80.3°F26.8°C 67.0°F19.4°C 64% 1.2 mph NE1.9 kmh NE 3.5 mph5.6 kmh 30.14 in1020.7 mb - 0.00 in0.0 mm 0.00 in0.0 mm
11:00 AM 79.3°F26.3°C 66.5°F19.2°C 65% 1.2 mph NW1.9 kmh NW 3.5 mph5.6 kmh 30.15 in1021.0 mb - 0.00 in0.0 mm 0.00 in0.0 mm
10:30 AM 78.4°F25.8°C 68.3°F20.2°C 71% 1.2 mph NE1.9 kmh NE 1.2 mph1.9 kmh 30.16 in1021.3 mb - 0.00 in0.0 mm 0.00 in0.0 mm
10:00 AM 77.1°F25.1°C 70.1°F21.2°C 79% Calm Calm 1.2 mph1.9 kmh 30.16 in1021.3 mb - 0.00 in0.0 mm 0.00 in0.0 mm
09:30 AM 73.6°F23.1°C 68.8°F20.4°C 85% Calm Calm 1.2 mph1.9 kmh 30.16 in1021.3 mb - 0.00 in0.0 mm 0.00 in0.0 mm
09:00 AM 66.1°F18.9°C 66.1°F18.9°C 100% Calm Calm 1.2 mph1.9 kmh 30.16 in1021.3 mb - 0.00 in0.0 mm 0.00 in0.0 mm
08:30 AM 61.4°F16.3°C 61.4°F16.3°C 100% Calm Calm -- 30.16 in1021.3 mb - 0.00 in0.0 mm 0.00 in0.0 mm
08:00 AM 58.5°F14.7°C 58.5°F14.7°C 100% Calm Calm -- 30.16 in1021.3 mb - 0.00 in0.0 mm 0.00 in0.0 mm
07:30 AM 56.7°F13.7°C 56.7°F13.7°C 100% Calm Calm -- 30.15 in1021.0 mb - 0.00 in0.0 mm 0.00 in0.0 mm
07:00 AM 56.6°F13.7°C 56.6°F13.7°C 100% Calm Calm -- 30.15 in1021.0 mb - 0.00 in0.0 mm 0.00 in0.0 mm
06:30 AM 56.7°F13.7°C 55.9°F13.3°C 97% Calm Calm -- 30.14 in1020.7 mb - 0.00 in0.0 mm 0.00 in0.0 mm
06:00 AM 57.1°F13.9°C 56.3°F13.5°C 97% Calm Calm -- 30.13 in1020.3 mb - 0.00 in0.0 mm 0.00 in0.0 mm
05:30 AM 57.5°F14.2°C 56.7°F13.7°C 97% Calm Calm -- 30.13 in1020.3 mb - 0.00 in0.0 mm 0.00 in0.0 mm
05:00 AM 57.7°F14.3°C 56.9°F13.8°C 97% Calm Calm -- 30.13 in1020.3 mb - 0.00 in0.0 mm 0.00 in0.0 mm
04:30 AM 58.1°F14.5°C 57.3°F14.1°C 97% Calm Calm -- 30.13 in1020.3 mb - 0.00 in0.0 mm 0.00 in0.0 mm
04:00 AM 58.5°F14.7°C 57.7°F14.3°C 97% Calm Calm -- 30.12 in1020.0 mb - 0.00 in0.0 mm 0.00 in0.0 mm
03:30 AM 59.0°F15.0°C 58.2°F14.6°C 97% Calm Calm -- 30.13 in1020.3 mb - 0.00 in0.0 mm 0.00 in0.0 mm
03:00 AM 59.5°F15.3°C 58.6°F14.8°C 97% Calm Calm -- 30.14 in1020.7 mb - 0.00 in0.0 mm 0.00 in0.0 mm
02:30 AM 59.6°F15.3°C 58.8°F14.9°C 97% Calm Calm -- 30.15 in1021.0 mb - 0.00 in0.0 mm 0.00 in0.0 mm
02:00 AM 60.0°F15.6°C 59.2°F15.1°C 97% Calm Calm -- 30.16 in1021.3 mb - 0.00 in0.0 mm 0.00 in0.0 mm
01:30 AM 60.3°F15.7°C 59.4°F15.2°C 97% Calm Calm -- 30.15 in1021.0 mb - 0.00 in0.0 mm 0.00 in0.0 mm
01:00 AM 60.8°F16.0°C 59.7°F15.4°C 96% Calm Calm -- 30.15 in1021.0 mb - 0.00 in0.0 mm 0.00 in0.0 mm
12:30 AM 61.1°F16.2°C 60.0°F15.6°C 96% Calm Calm -- 30.16 in1021.3 mb - 0.00 in0.0 mm 0.00 in0.0 mm
12:00 AM 61.5°F16.4°C 60.4°F15.8°C 96% Calm Calm -- 30.17 in1021.7 mb - 0.00 in0.0 mm 0.00 in0.0 mm